createdAt,value
2022-08-05T00:01:55.983Z,101500.66
2022-08-05T00:04:26.850Z,101505.24
2022-08-05T00:06:56.211Z,101508.36
2022-08-05T00:09:25.478Z,101513.26
2022-08-05T00:11:59.949Z,101509.01
2022-08-05T00:14:31.427Z,101508.64
2022-08-05T00:16:58.987Z,101513.02
2022-08-05T00:19:33.135Z,101512.31
2022-08-05T00:22:01.380Z,101519.94
2022-08-05T00:24:31.522Z,101512.38
2022-08-05T00:27:01.667Z,101514.80
2022-08-05T00:29:37.736Z,101509.59
2022-08-05T00:32:12.937Z,101512.56
2022-08-05T00:34:54.674Z,101509.09
2022-08-05T00:37:11.542Z,101509.40
2022-08-05T00:39:41.730Z,101511.34
2022-08-05T00:42:09.099Z,101507.20
2022-08-05T00:44:38.389Z,101508.90
2022-08-05T00:47:07.859Z,101501.81
2022-08-05T00:49:51.086Z,101509.26
2022-08-05T00:52:09.787Z,101517.99
2022-08-05T00:54:40.763Z,101527.25
2022-08-05T00:57:11.934Z,101530.23
2022-08-05T00:59:44.324Z,101533.70
2022-08-05T01:02:12.586Z,101534.51
2022-08-05T01:04:43.540Z,101537.34
2022-08-05T01:07:23.495Z,101538.73
2022-08-05T01:09:44.029Z,101543.38
2022-08-05T01:12:18.660Z,101545.63
2022-08-05T01:14:54.669Z,101554.91
2022-08-05T01:17:30.474Z,101568.03
2022-08-05T01:20:20.368Z,101562.02
2022-08-05T01:23:14.930Z,101556.27
2022-08-05T01:25:56.539Z,101569.39
2022-08-05T01:28:34.985Z,101574.86
2022-08-05T01:31:07.463Z,101570.05
2022-08-05T01:33:49.175Z,101584.14
2022-08-05T01:36:18.470Z,101581.65
2022-08-05T01:38:50.019Z,101563.08
2022-08-05T01:41:22.247Z,101550.03
2022-08-05T01:43:55.128Z,101536.97
2022-08-05T01:46:41.346Z,101544.14
2022-08-05T01:48:59.019Z,101545.27
2022-08-05T01:51:30.104Z,101551.60
2022-08-05T01:54:02.152Z,101555.92
2022-08-05T01:58:11.542Z,101557.12
2022-08-05T01:59:07.704Z,101521.22
2022-08-05T02:01:40.311Z,101521.30
2022-08-05T02:04:10.846Z,101528.67
2022-08-05T02:06:40.586Z,101513.98
2022-08-05T02:09:11.532Z,101524.34
2022-08-05T02:11:58.025Z,101521.67
2022-08-05T02:14:35.750Z,101532.02
2022-08-05T02:17:17.029Z,101540.17
2022-08-05T02:19:49.299Z,101521.61
2022-08-05T02:22:25.612Z,101520.08
2022-08-05T02:25:00.152Z,101523.38
2022-08-05T02:27:58.532Z,101521.88
2022-08-05T02:30:02.853Z,101511.80
2022-08-05T02:32:34.054Z,101516.99
2022-08-05T02:35:13.766Z,101515.45
2022-08-05T02:37:38.461Z,101522.57
2022-08-05T02:40:09.604Z,101528.08
2022-08-05T02:42:40.529Z,101523.19
2022-08-05T02:45:11.108Z,101529.76
2022-08-05T02:48:06.769Z,101527.84
2022-08-05T02:50:13.910Z,101541.25
2022-08-05T02:52:45.858Z,101538.46
2022-08-05T02:55:17.699Z,101543.30
2022-08-05T02:58:11.605Z,101538.91
2022-08-05T03:00:18.463Z,101535.39
2022-08-05T03:02:48.822Z,101540.62
2022-08-05T03:05:21.913Z,101534.93
2022-08-05T03:08:01.712Z,101534.09
2022-08-05T03:10:21.950Z,101537.91
2022-08-05T03:12:52.821Z,101534.95
2022-08-05T03:15:23.977Z,101544.47
2022-08-05T03:17:55.986Z,101552.70
2022-08-05T03:20:26.647Z,101564.16
2022-08-05T03:22:57.656Z,101570.95
2022-08-05T03:25:33.176Z,101565.52
2022-08-05T03:28:00.607Z,101566.84
2022-08-05T03:30:33.985Z,101567.11
2022-08-05T03:33:05.700Z,101562.78
2022-08-05T03:35:40.961Z,101555.98
2022-08-05T03:38:06.759Z,101563.85
2022-08-05T03:40:36.163Z,101572.33
2022-08-05T03:43:15.968Z,101574.24
2022-08-05T03:45:58.000Z,101562.00
2022-08-05T03:48:09.154Z,101556.86
2022-08-05T03:50:47.406Z,101544.44
2022-08-05T03:55:53.544Z,101554.02
2022-08-05T03:56:10.423Z,101553.05
2022-08-05T03:58:32.265Z,101546.81
2022-08-05T04:01:04.083Z,101551.41
2022-08-05T04:03:38.135Z,101559.84
2022-08-05T04:06:08.700Z,101558.20
2022-08-05T04:08:39.202Z,101561.77
2022-08-05T04:11:09.906Z,101558.34
2022-08-05T04:13:49.837Z,101563.70
2022-08-05T04:16:14.854Z,101567.52
2022-08-05T04:18:47.582Z,101567.47
2022-08-05T04:22:04.957Z,101562.53
2022-08-05T04:24:05.147Z,101561.77
2022-08-05T04:26:20.370Z,101565.00
2022-08-05T04:28:51.236Z,101564.25
2022-08-05T04:31:21.421Z,101564.03
2022-08-05T04:34:17.569Z,101563.13
2022-08-05T04:36:44.795Z,101561.02
2022-08-05T04:38:54.473Z,101558.64
2022-08-05T04:41:34.068Z,101556.23
2022-08-05T04:43:56.430Z,101552.75
2022-08-05T04:46:28.430Z,101555.98
2022-08-05T04:48:58.685Z,101551.95
2022-08-05T04:51:30.490Z,101549.83
2022-08-05T04:54:01.315Z,101547.66
2022-08-05T04:56:35.052Z,101543.89
2022-08-05T04:59:24.261Z,101554.55
2022-08-05T05:02:07.230Z,101554.30
2022-08-05T05:04:04.705Z,101561.09
2022-08-05T05:06:39.034Z,101556.77
2022-08-05T05:09:05.591Z,101554.77
2022-08-05T05:11:52.895Z,101557.23
2022-08-05T05:14:06.738Z,101564.58
2022-08-05T05:16:37.647Z,101560.79
2022-08-05T05:19:19.157Z,101566.73
2022-08-05T05:21:39.872Z,101565.34
2022-08-05T05:24:09.455Z,101562.11
2022-08-05T05:26:39.793Z,101562.70
2022-08-05T05:29:14.240Z,101568.48
2022-08-05T05:34:08.563Z,101571.97
2022-08-05T05:36:37.883Z,101571.67
2022-08-05T05:39:10.882Z,101571.38
2022-08-05T05:41:40.896Z,101578.08
2022-08-05T05:44:36.007Z,101580.45
2022-08-05T05:46:41.624Z,101580.40
2022-08-05T05:49:22.849Z,101583.38
2022-08-05T05:51:50.298Z,101584.33
2022-08-05T05:54:14.854Z,101585.84
2022-08-05T05:56:45.953Z,101589.46
2022-08-05T05:59:16.781Z,101592.42
2022-08-05T06:01:57.750Z,101597.05
2022-08-05T06:04:17.134Z,101608.77
2022-08-05T06:06:48.806Z,101612.34
2022-08-05T06:09:25.703Z,101612.56
2022-08-05T06:11:59.589Z,101614.75
2022-08-05T06:14:20.027Z,101615.69
2022-08-05T06:16:49.411Z,101615.43
2022-08-05T06:19:26.035Z,101616.23
2022-08-05T06:21:50.048Z,101619.98
2022-08-05T06:24:22.520Z,101622.18
2022-08-05T06:26:53.263Z,101620.31
2022-08-05T06:29:48.153Z,101623.84
2022-08-05T06:31:55.146Z,101633.13
2022-08-05T06:34:27.705Z,101629.05
2022-08-05T06:36:58.855Z,101639.92
2022-08-05T06:39:28.409Z,101641.11
2022-08-05T06:42:01.418Z,101644.20
2022-08-05T06:44:32.838Z,101640.63
2022-08-05T06:47:02.505Z,101647.60
2022-08-05T06:50:01.664Z,101652.33
2022-08-05T06:52:03.553Z,101661.48
2022-08-05T06:54:32.858Z,101660.42
2022-08-05T06:57:58.179Z,101668.64
2022-08-05T06:59:38.862Z,101661.72
2022-08-05T07:02:05.838Z,101662.27
2022-08-05T07:04:35.146Z,101675.09
2022-08-05T07:07:07.894Z,101669.46
2022-08-05T07:09:37.485Z,101672.06
2022-08-05T07:12:08.511Z,101668.53
2022-08-05T07:14:55.691Z,101676.72
2022-08-05T07:18:00.894Z,101673.45
2022-08-05T07:22:30.024Z,101681.59
2022-08-05T07:25:22.065Z,101686.61
2022-08-05T07:27:56.686Z,101691.88
2022-08-05T07:30:27.213Z,101694.41
2022-08-05T07:32:39.298Z,101692.13
2022-08-05T07:36:01.939Z,101690.77
2022-08-05T07:37:41.617Z,101694.60
2022-08-05T07:40:31.393Z,101701.32
2022-08-05T07:42:44.040Z,101698.82
2022-08-05T07:45:13.455Z,101713.39
2022-08-05T07:47:44.464Z,101718.87
2022-08-05T07:50:16.674Z,101714.17
2022-08-05T07:52:46.721Z,101721.75
2022-08-05T07:56:05.589Z,101726.72
2022-08-05T07:58:00.447Z,101724.38
2022-08-05T08:00:19.097Z,101728.99
2022-08-05T08:03:13.998Z,101733.19
2022-08-05T08:05:19.312Z,101733.80
2022-08-05T08:07:59.508Z,101733.44
2022-08-05T08:10:20.498Z,101738.90
2022-08-05T08:12:50.784Z,101737.09
2022-08-05T08:16:33.988Z,101738.31
2022-08-05T08:17:52.985Z,101745.23
2022-08-05T08:21:00.495Z,101746.56
2022-08-05T08:22:56.503Z,101754.24
2022-08-05T08:25:58.933Z,101757.61
2022-08-05T08:27:58.706Z,101760.42
2022-08-05T08:30:37.692Z,101760.34
2022-08-05T08:33:04.546Z,101763.80
2022-08-05T08:35:35.070Z,101766.33
2022-08-05T08:38:02.152Z,101767.77
2022-08-05T08:40:34.283Z,101765.95
2022-08-05T08:45:21.001Z,101762.70
2022-08-05T08:45:37.513Z,101773.16
2022-08-05T08:48:22.679Z,101765.43
2022-08-05T08:51:03.084Z,101771.22
2022-08-05T08:53:13.194Z,101772.83
2022-08-05T08:56:03.866Z,101775.15
2022-08-05T08:58:16.847Z,101780.38
2022-08-05T09:00:46.809Z,101781.66
2022-08-05T09:03:19.171Z,101787.07
2022-08-05T09:06:09.169Z,101790.83
2022-08-05T09:08:20.717Z,101799.89
2022-08-05T09:10:52.832Z,101796.05
2022-08-05T09:13:23.594Z,101798.70
2022-08-05T09:15:53.311Z,101804.56
2022-08-05T09:18:24.563Z,101800.45
2022-08-05T09:20:53.956Z,101810.91
2022-08-05T09:23:27.240Z,101813.59
2022-08-05T09:26:20.527Z,101817.28
2022-08-05T09:28:45.960Z,101819.22
2022-08-05T09:31:23.245Z,101815.63
2022-08-05T09:33:50.907Z,101825.04
2022-08-05T09:36:20.635Z,101821.53
2022-08-05T09:39:00.623Z,101822.20
2022-08-05T09:41:32.750Z,101826.72
2022-08-05T09:44:03.847Z,101838.78
2022-08-05T09:46:35.288Z,101838.11
2022-08-05T09:49:18.763Z,101846.13
2022-08-05T09:51:42.283Z,101843.14
2022-08-05T09:54:12.035Z,101840.33
2022-08-05T09:56:52.446Z,101856.20
2022-08-05T09:59:17.594Z,101846.03
2022-08-05T10:01:47.423Z,101838.67
2022-08-05T10:04:17.539Z,101843.52
2022-08-05T10:06:59.435Z,101854.08
2022-08-05T10:09:30.144Z,101866.02
2022-08-05T10:12:18.781Z,101863.66
2022-08-05T10:14:42.516Z,101866.34
2022-08-05T10:17:37.311Z,101878.88
2022-08-05T10:20:03.739Z,101876.73
2022-08-05T10:22:29.885Z,101879.06
2022-08-05T10:24:50.637Z,101881.34
2022-08-05T10:27:26.283Z,101882.35
2022-08-05T10:30:41.080Z,101880.94
2022-08-05T10:32:53.221Z,101881.02
2022-08-05T10:34:55.257Z,101882.73
2022-08-05T10:37:26.632Z,101886.82
2022-08-05T10:40:03.375Z,101888.92
2022-08-05T10:42:33.455Z,101886.91
2022-08-05T10:45:00.279Z,101897.33
2022-08-05T10:47:36.246Z,101891.98
2022-08-05T10:50:32.977Z,101893.83
2022-08-05T10:52:58.546Z,101900.31
2022-08-05T10:55:26.005Z,101899.31
2022-08-05T10:58:09.683Z,101908.21
2022-08-05T11:00:44.099Z,101912.35
2022-08-05T11:03:25.259Z,101916.44
2022-08-05T11:05:50.227Z,101915.73
2022-08-05T11:08:36.771Z,101921.84
2022-08-05T11:11:01.031Z,101931.59
2022-08-05T11:13:57.747Z,101927.48
2022-08-05T11:16:33.920Z,101927.55
2022-08-05T11:20:16.436Z,101922.34
2022-08-05T11:22:22.607Z,101939.64
2022-08-05T11:25:16.490Z,101938.83
2022-08-05T11:27:50.167Z,101942.39
2022-08-05T11:30:04.188Z,101945.44
2022-08-05T11:32:35.070Z,101955.48
2022-08-05T11:35:05.446Z,101946.61
2022-08-05T11:38:37.005Z,101960.61
2022-08-05T11:40:47.033Z,101961.77
2022-08-05T11:44:06.061Z,101960.99
2022-08-05T11:46:27.387Z,101965.30
2022-08-05T11:48:25.765Z,101963.55
2022-08-05T11:50:55.292Z,101971.06
2022-08-05T11:53:24.730Z,101976.16
2022-08-05T11:55:55.506Z,101975.63
2022-08-05T11:58:40.516Z,101972.41
2022-08-05T12:01:12.331Z,101967.89
2022-08-05T12:03:55.482Z,101974.62
2022-08-05T12:06:29.310Z,101971.30
2022-08-05T12:09:00.194Z,101980.63
2022-08-05T12:11:39.911Z,101976.84
2022-08-05T12:14:04.607Z,101985.74
2022-08-05T12:16:37.409Z,101986.95
2022-08-05T12:20:27.272Z,101985.75
2022-08-05T12:21:48.596Z,101980.80
2022-08-05T12:24:22.479Z,101984.26
2022-08-05T12:26:54.635Z,101994.09
2022-08-05T12:29:29.167Z,101991.70
2022-08-05T12:32:02.027Z,101998.63
2022-08-05T12:34:35.740Z,101993.11
2022-08-05T12:37:09.974Z,101993.66
2022-08-05T12:39:41.055Z,101990.33
2022-08-05T12:42:16.256Z,102004.77
2022-08-05T12:44:47.531Z,102006.78
2022-08-05T12:47:31.115Z,102010.88
2022-08-05T12:50:03.594Z,102011.70
2022-08-05T12:52:39.760Z,102012.86
2022-08-05T12:55:03.551Z,102016.09
2022-08-05T12:58:38.893Z,102020.64
2022-08-05T13:02:00.105Z,102024.80
2022-08-05T13:02:43.342Z,102028.96
2022-08-05T13:05:15.045Z,102031.57
2022-08-05T13:08:01.246Z,102034.80
2022-08-05T13:10:19.580Z,102035.70
2022-08-05T13:12:51.178Z,102032.64
2022-08-05T13:15:24.326Z,102035.34
2022-08-05T13:17:56.265Z,102033.61
2022-08-05T13:20:35.228Z,102038.80
2022-08-05T13:23:07.297Z,102045.79
2022-08-05T13:25:52.486Z,102041.65
2022-08-05T13:28:07.881Z,102042.22
2022-08-05T13:30:39.341Z,102044.54
2022-08-05T13:33:08.654Z,102049.53
2022-08-05T13:35:47.229Z,102047.98
2022-08-05T13:38:08.889Z,102057.15
2022-08-05T13:40:49.955Z,102060.53
2022-08-05T13:43:12.119Z,102056.42
2022-08-05T13:45:43.178Z,102059.80
2022-08-05T13:49:00.202Z,102056.87
2022-08-05T13:50:43.773Z,102064.57
2022-08-05T13:53:15.924Z,102064.57
2022-08-05T13:55:49.270Z,102069.97
2022-08-05T13:58:30.983Z,102064.89
2022-08-05T14:00:47.129Z,102068.78
2022-08-05T14:03:16.869Z,102076.80
2022-08-05T14:06:24.347Z,102076.80
2022-08-05T14:08:20.800Z,102079.88
2022-08-05T14:10:48.997Z,102082.74
2022-08-05T14:13:18.261Z,102088.27
2022-08-05T14:16:06.927Z,102087.56
2022-08-05T14:18:23.381Z,102091.58
2022-08-05T14:20:52.923Z,102086.50
2022-08-05T14:23:25.470Z,102089.22
2022-08-05T14:25:54.499Z,102098.12
2022-08-05T14:28:27.119Z,102099.10
2022-08-05T14:31:01.525Z,102101.56
2022-08-05T14:33:59.646Z,102102.17
2022-08-05T14:36:05.293Z,102107.44
2022-08-05T14:38:36.253Z,102101.93
2022-08-05T14:41:08.329Z,102103.63
2022-08-05T14:43:59.107Z,102105.84
2022-08-05T14:46:09.151Z,102105.64
2022-08-05T14:48:38.466Z,102104.39
2022-08-05T14:51:08.398Z,102101.05
2022-08-05T14:53:44.278Z,102101.63
2022-08-05T14:56:09.120Z,102114.31
2022-08-05T14:58:47.494Z,102119.07
2022-08-05T15:01:15.998Z,102118.36
2022-08-05T15:03:42.669Z,102133.64
2022-08-05T15:06:15.751Z,102127.39
2022-08-05T15:08:57.990Z,102121.02
2022-08-05T15:11:17.135Z,102122.91
2022-08-05T15:13:50.291Z,102120.80
2022-08-05T15:16:17.436Z,102118.97
2022-08-05T15:18:47.181Z,102120.56
2022-08-05T15:21:20.953Z,102125.86
2022-08-05T15:23:47.599Z,102126.79
2022-08-05T15:26:32.081Z,102132.70
2022-08-05T15:28:48.682Z,102132.06
2022-08-05T15:31:19.655Z,102133.03
2022-08-05T15:34:04.355Z,102137.89
2022-08-05T15:36:24.153Z,102132.81
2022-08-05T15:40:58.661Z,102139.97
2022-08-05T15:41:26.010Z,102143.08
2022-08-05T15:43:57.184Z,102139.56
2022-08-05T15:46:26.663Z,102145.45
2022-08-05T15:48:58.827Z,102143.47
2022-08-05T15:52:04.510Z,102141.84
2022-08-05T15:53:59.380Z,102153.09
2022-08-05T15:56:30.602Z,102152.21
2022-08-05T15:59:00.287Z,102158.41
2022-08-05T16:01:29.738Z,102163.20
2022-08-05T16:04:00.663Z,102169.63
2022-08-05T16:06:29.925Z,102160.14
2022-08-05T16:08:59.525Z,102164.08
2022-08-05T16:11:43.167Z,102167.16
2022-08-05T16:14:00.097Z,102175.36
2022-08-05T16:16:30.088Z,102172.77
2022-08-05T16:18:59.718Z,102175.09
2022-08-05T16:21:58.877Z,102178.98
2022-08-05T16:24:03.698Z,102180.22
2022-08-05T16:26:31.765Z,102181.48
2022-08-05T16:29:01.542Z,102179.30
2022-08-05T16:31:56.416Z,102177.70
2022-08-05T16:34:01.844Z,102182.16
2022-08-05T16:36:31.727Z,102178.80
2022-08-05T16:39:02.077Z,102187.13
2022-08-05T16:42:14.415Z,102197.92
2022-08-05T16:44:02.427Z,102202.23
2022-08-05T16:46:31.818Z,102206.44
2022-08-05T16:49:01.524Z,102201.40
2022-08-05T16:51:42.692Z,102207.77
2022-08-05T16:54:16.060Z,102213.37
2022-08-05T16:56:34.671Z,102207.86
2022-08-05T16:59:09.122Z,102213.89
2022-08-05T17:01:52.967Z,102212.91
2022-08-05T17:04:10.226Z,102217.82
2022-08-05T17:06:41.972Z,102220.49
2022-08-05T17:09:10.684Z,102219.79
2022-08-05T17:11:49.002Z,102225.70
2022-08-05T17:14:12.981Z,102228.05
2022-08-05T17:16:42.454Z,102228.56
2022-08-05T17:19:11.701Z,102231.08
2022-08-05T17:21:41.121Z,102239.02
2022-08-05T17:24:30.312Z,102241.15
2022-08-05T17:26:43.072Z,102248.88
2022-08-05T17:29:12.472Z,102241.51
2022-08-05T17:31:58.328Z,102253.42
2022-08-05T17:34:18.065Z,102249.88
2022-08-05T17:36:44.659Z,102253.55
2022-08-05T17:39:24.242Z,102254.86
2022-08-05T17:42:20.372Z,102254.86
2022-08-05T17:44:16.591Z,102260.56
2022-08-05T17:46:45.879Z,102268.11
2022-08-05T17:49:15.960Z,102260.77
2022-08-05T17:51:45.961Z,102272.25
2022-08-05T17:54:17.179Z,102271.17
2022-08-05T17:56:49.142Z,102277.81
2022-08-05T17:59:20.844Z,102272.72
2022-08-05T18:01:50.645Z,102270.28
2022-08-05T18:04:21.489Z,102271.93
2022-08-05T18:06:51.100Z,102279.83
2022-08-05T18:09:22.296Z,102288.56
2022-08-05T18:11:53.441Z,102294.25
2022-08-05T18:14:22.698Z,102291.55
2022-08-05T18:16:53.390Z,102296.98
2022-08-05T18:19:25.936Z,102301.88
2022-08-05T18:22:08.567Z,102306.75
2022-08-05T18:24:24.973Z,102306.22
2022-08-05T18:26:55.929Z,102305.68
2022-08-05T18:29:40.331Z,102310.31
2022-08-05T18:31:57.978Z,102314.92
2022-08-05T18:34:39.683Z,102315.44
2022-08-05T18:36:58.206Z,102315.18
2022-08-05T18:40:29.397Z,102317.09
2022-08-05T18:42:05.053Z,102319.52
2022-08-05T18:44:34.810Z,102324.41
2022-08-05T18:47:01.552Z,102330.11
2022-08-05T18:49:58.238Z,102327.34
2022-08-05T18:52:39.511Z,102328.95
2022-08-05T18:55:10.978Z,102330.31
2022-08-05T18:57:50.037Z,102332.47
2022-08-05T19:00:20.094Z,102336.26
2022-08-05T19:02:44.330Z,102336.98
2022-08-05T19:06:06.103Z,102343.78
2022-08-05T19:07:48.260Z,102344.30
2022-08-05T19:10:26.513Z,102339.93
2022-08-05T19:12:50.936Z,102337.42
2022-08-05T19:15:57.103Z,102345.03
2022-08-05T19:18:08.532Z,102344.42
2022-08-05T19:20:22.115Z,102343.58
2022-08-05T19:22:53.564Z,102347.66
2022-08-05T19:25:29.801Z,102348.43
2022-08-05T19:27:54.285Z,102353.83
2022-08-05T19:30:23.806Z,102358.95
2022-08-05T19:32:53.186Z,102359.72
2022-08-05T19:35:22.770Z,102354.22
2022-08-05T19:38:05.974Z,102365.84
2022-08-05T19:40:24.362Z,102371.54
2022-08-05T19:43:04.914Z,102369.02
2022-08-05T19:45:25.645Z,102369.86
2022-08-05T19:47:55.831Z,102364.70
2022-08-05T19:50:25.244Z,102378.99
2022-08-05T19:52:54.548Z,102383.02
2022-08-05T19:56:14.124Z,102387.84
2022-08-05T19:58:07.117Z,102391.02
2022-08-05T20:00:25.906Z,102391.83
2022-08-05T20:02:55.172Z,102394.83
2022-08-05T20:05:25.910Z,102397.30
2022-08-05T20:07:59.128Z,102404.08
2022-08-05T20:10:27.837Z,102405.66
2022-08-05T20:12:58.332Z,102408.05
2022-08-05T20:15:52.597Z,102413.42
2022-08-05T20:18:04.196Z,102413.41
2022-08-05T20:20:35.079Z,102410.70
2022-08-05T20:23:04.486Z,102420.13
2022-08-05T20:25:39.840Z,102417.92
2022-08-05T20:28:13.835Z,102426.09
2022-08-05T20:30:39.548Z,102423.31
2022-08-05T20:33:10.516Z,102431.66
2022-08-05T20:35:40.687Z,102429.83
2022-08-05T20:38:10.868Z,102438.44
2022-08-05T20:40:43.312Z,102439.17
2022-08-05T20:43:12.584Z,102443.92
2022-08-05T20:45:56.448Z,102441.90
2022-08-05T20:48:16.623Z,102440.95
2022-08-05T20:50:45.232Z,102441.02
2022-08-05T20:53:36.961Z,102444.28
2022-08-05T20:56:07.205Z,102441.10
2022-08-05T20:58:17.907Z,102440.35
2022-08-05T21:00:54.629Z,102450.42
2022-08-05T21:03:20.991Z,102448.19
2022-08-05T21:05:54.545Z,102445.50
2022-08-05T21:08:21.287Z,102449.75
2022-08-05T21:10:52.546Z,102452.67
2022-08-05T21:13:48.411Z,102456.66
2022-08-05T21:15:54.511Z,102454.75
2022-08-05T21:18:24.885Z,102456.33
2022-08-05T21:20:55.657Z,102459.09
2022-08-05T21:23:25.069Z,102458.02
2022-08-05T21:25:55.379Z,102457.95
2022-08-05T21:28:30.611Z,102463.64
2022-08-05T21:30:55.777Z,102462.88
2022-08-05T21:33:26.224Z,102470.19
2022-08-05T21:35:58.938Z,102469.38
2022-08-05T21:38:28.890Z,102465.89
2022-08-05T21:40:58.305Z,102465.66
2022-08-05T21:43:27.595Z,102472.64
2022-08-05T21:46:00.582Z,102482.23
2022-08-05T21:48:31.855Z,102478.55
2022-08-05T21:51:01.285Z,102481.66
2022-08-05T21:53:30.555Z,102486.23
2022-08-05T21:56:06.565Z,102484.29
2022-08-05T21:58:34.512Z,102485.64
2022-08-05T22:01:06.146Z,102482.73
2022-08-05T22:03:52.630Z,102486.52
2022-08-05T22:06:08.273Z,102489.48
2022-08-05T22:08:37.657Z,102486.55
2022-08-05T22:11:09.076Z,102488.44
2022-08-05T22:14:05.944Z,102493.01
2022-08-05T22:16:40.448Z,102497.27
2022-08-05T22:18:42.723Z,102498.39
2022-08-05T22:21:18.951Z,102502.81
2022-08-05T22:24:12.895Z,102503.99
2022-08-05T22:26:51.808Z,102498.59
2022-08-05T22:29:26.244Z,102498.74
2022-08-05T22:31:55.231Z,102499.72
2022-08-05T22:34:28.326Z,102495.31
2022-08-05T22:36:54.432Z,102499.09
2022-08-05T22:39:23.857Z,102501.91
2022-08-05T22:42:10.472Z,102507.84
2022-08-05T22:44:24.120Z,102505.59
2022-08-05T22:46:54.646Z,102505.95
2022-08-05T22:50:19.553Z,102511.64
2022-08-05T22:52:05.105Z,102517.83
2022-08-05T22:54:26.676Z,102522.85
2022-08-05T22:56:57.217Z,102519.80
2022-08-05T22:59:42.584Z,102528.16
2022-08-05T23:02:05.478Z,102526.55
2022-08-05T23:04:28.611Z,102527.44
2022-08-05T23:06:57.978Z,102523.13
2022-08-05T23:09:57.095Z,102520.97
2022-08-05T23:11:58.655Z,102525.05
2022-08-05T23:14:32.240Z,102530.47
2022-08-05T23:17:18.694Z,102542.06
2022-08-05T23:19:51.159Z,102542.52
2022-08-05T23:22:27.150Z,102546.36
2022-08-05T23:24:53.240Z,102542.45
2022-08-05T23:27:22.876Z,102545.39
2022-08-05T23:29:54.084Z,102549.16
2022-08-05T23:32:24.371Z,102545.68
2022-08-05T23:34:56.050Z,102544.47
2022-08-05T23:37:26.608Z,102544.64
2022-08-05T23:39:56.688Z,102548.31
2022-08-05T23:42:29.334Z,102552.61
2022-08-05T23:44:57.755Z,102553.92
2022-08-05T23:47:26.987Z,102560.26
2022-08-05T23:49:56.563Z,102561.13
2022-08-05T23:52:36.024Z,102562.16
2022-08-05T23:55:08.992Z,102565.55
2022-08-05T23:57:38.591Z,102567.70
